createdAt,value
2019-06-20T00:00:50.078Z,13.62
2019-06-20T00:03:38.699Z,16.52
2019-06-20T00:06:27.531Z,14.38
2019-06-20T00:09:15.880Z,19.65
2019-06-20T00:12:04.368Z,16.57
2019-06-20T00:14:52.904Z,16.97
2019-06-20T00:17:41.633Z,16.55
2019-06-20T00:20:30.361Z,16.95
2019-06-20T00:23:18.770Z,18.77
2019-06-20T00:26:07.237Z,17.90
2019-06-20T00:28:55.845Z,18.20
2019-06-20T00:31:45.365Z,16.87
2019-06-20T00:34:34.048Z,21.10
2019-06-20T00:37:22.773Z,20.25
2019-06-20T00:40:11.703Z,18.07
2019-06-20T00:43:13.400Z,24.90
2019-06-20T00:45:50.962Z,17.30
2019-06-20T00:48:39.577Z,17.45
2019-06-20T00:51:28.428Z,21.07
2019-06-20T00:54:17.044Z,20.92
2019-06-20T00:57:05.602Z,21.73
2019-06-20T00:59:54.551Z,23.62
2019-06-20T01:02:42.996Z,22.35
2019-06-20T01:05:31.732Z,18.02
2019-06-20T01:08:20.604Z,15.95
2019-06-20T01:11:09.022Z,17.20
2019-06-20T01:13:58.209Z,21.85
2019-06-20T01:16:46.607Z,14.70
2019-06-20T01:19:35.107Z,21.35
2019-06-20T01:22:24.064Z,19.55
2019-06-20T01:25:12.884Z,15.35
2019-06-20T01:28:01.532Z,17.48
2019-06-20T01:30:50.077Z,17.52
2019-06-20T01:33:38.585Z,15.35
2019-06-20T01:36:27.288Z,17.95
2019-06-20T01:39:16.051Z,20.82
2019-06-20T01:42:04.697Z,15.63
2019-06-20T01:44:53.943Z,17.87
2019-06-20T01:47:42.380Z,22.17
2019-06-20T01:50:30.996Z,19.07
2019-06-20T01:53:19.720Z,15.93
2019-06-20T01:56:08.394Z,18.15
2019-06-20T01:58:56.999Z,16.00
2019-06-20T02:01:45.659Z,14.90
2019-06-20T02:04:34.499Z,12.93
2019-06-20T02:07:23.495Z,12.37
2019-06-20T02:10:12.506Z,12.40
2019-06-20T02:13:01.375Z,14.35
2019-06-20T02:15:50.986Z,16.10
2019-06-20T02:18:39.690Z,17.32
2019-06-20T02:21:28.492Z,21.45
2019-06-20T02:24:17.306Z,16.95
2019-06-20T02:27:05.447Z,18.07
2019-06-20T02:29:53.926Z,13.70
2019-06-20T02:32:42.669Z,15.90
2019-06-20T02:35:31.451Z,9.40
2019-06-20T02:38:20.354Z,13.78
2019-06-20T02:41:09.256Z,14.45
2019-06-20T02:43:57.441Z,17.05
2019-06-20T02:46:46.075Z,11.95
2019-06-20T02:49:34.892Z,12.20
2019-06-20T02:52:24.295Z,11.57
2019-06-20T02:55:13.176Z,14.83
2019-06-20T02:58:01.922Z,10.72
2019-06-20T03:00:56.256Z,12.23
2019-06-20T03:03:45.035Z,12.30
2019-06-20T03:06:33.919Z,11.80
2019-06-20T03:09:22.879Z,12.80
2019-06-20T03:12:11.859Z,8.65
2019-06-20T03:15:00.445Z,9.10
2019-06-20T03:17:48.942Z,11.22
2019-06-20T03:20:37.645Z,9.75
2019-06-20T03:23:26.468Z,15.00
2019-06-20T03:26:15.231Z,16.05
2019-06-20T03:29:03.554Z,12.33
2019-06-20T03:31:52.241Z,8.30
2019-06-20T03:34:40.734Z,9.45
2019-06-20T03:37:29.545Z,8.18
2019-06-20T03:40:18.662Z,10.68
2019-06-20T03:43:07.305Z,14.58
2019-06-20T03:45:57.005Z,9.95
2019-06-20T03:48:45.698Z,6.87
2019-06-20T03:51:34.404Z,9.25
2019-06-20T03:54:23.019Z,13.78
2019-06-20T03:57:11.665Z,8.75
2019-06-20T04:00:00.197Z,8.38
2019-06-20T04:02:48.956Z,8.80
2019-06-20T04:05:37.758Z,12.28
2019-06-20T04:08:26.244Z,9.45
2019-06-20T04:11:15.115Z,8.75
2019-06-20T04:14:03.602Z,8.18
2019-06-20T04:16:52.011Z,6.35
2019-06-20T04:19:42.191Z,8.85
2019-06-20T04:22:31.299Z,17.27
2019-06-20T04:25:20.024Z,12.40
2019-06-20T04:28:09.033Z,12.10
2019-06-20T04:30:57.716Z,9.98
2019-06-20T04:33:46.125Z,7.55
2019-06-20T04:36:34.908Z,10.95
2019-06-20T04:39:23.552Z,13.32
2019-06-20T04:42:12.266Z,6.47
2019-06-20T04:45:04.183Z,8.18
2019-06-20T04:47:52.776Z,10.28
2019-06-20T04:50:41.283Z,10.58
2019-06-20T04:53:30.578Z,13.25
2019-06-20T04:56:19.414Z,10.48
2019-06-20T04:59:07.936Z,10.30
2019-06-20T05:01:56.346Z,14.30
2019-06-20T05:04:44.833Z,8.65
2019-06-20T05:07:33.622Z,12.35
2019-06-20T05:10:22.073Z,11.25
2019-06-20T05:13:10.540Z,8.13
2019-06-20T05:15:59.274Z,19.67
2019-06-20T05:18:48.296Z,11.45
2019-06-20T05:21:37.184Z,8.05
2019-06-20T05:24:25.947Z,9.73
2019-06-20T05:27:14.615Z,8.88
2019-06-20T05:30:04.686Z,9.15
2019-06-20T05:32:53.044Z,7.87
2019-06-20T05:35:43.549Z,8.25
2019-06-20T05:38:31.844Z,14.07
2019-06-20T05:41:20.652Z,7.22
2019-06-20T05:44:09.027Z,12.23
2019-06-20T05:47:11.911Z,9.00
2019-06-20T05:49:47.887Z,8.05
2019-06-20T05:52:37.109Z,9.98
2019-06-20T05:55:25.475Z,9.20
2019-06-20T05:58:14.156Z,12.47
2019-06-20T06:01:02.686Z,12.33
2019-06-20T06:04:12.028Z,10.05
2019-06-20T06:07:29.519Z,16.45
2019-06-20T06:10:24.003Z,12.85
2019-06-20T06:13:12.758Z,11.43
2019-06-20T06:16:01.617Z,11.08
2019-06-20T06:18:50.014Z,14.07
2019-06-20T06:21:38.750Z,9.63
2019-06-20T06:24:27.435Z,11.08
2019-06-20T06:27:17.732Z,9.85
2019-06-20T06:30:11.321Z,12.03
2019-06-20T06:32:59.896Z,14.45
2019-06-20T06:35:48.308Z,17.42
2019-06-20T06:38:38.511Z,13.43
2019-06-20T06:41:30.173Z,15.03
2019-06-20T06:44:18.727Z,12.05
2019-06-20T06:47:07.124Z,8.90
2019-06-20T06:49:55.812Z,9.98
2019-06-20T06:52:44.491Z,14.60
2019-06-20T06:55:32.965Z,11.08
2019-06-20T06:58:23.844Z,15.25
2019-06-20T07:01:12.327Z,8.88
2019-06-20T07:04:01.144Z,12.98
2019-06-20T07:06:49.995Z,12.47
2019-06-20T07:09:38.482Z,15.48
2019-06-20T07:12:27.197Z,13.22
2019-06-20T07:15:17.408Z,13.88
2019-06-20T07:18:05.954Z,13.45
2019-06-20T07:20:56.873Z,7.58
2019-06-20T07:23:45.756Z,13.68
2019-06-20T07:26:34.122Z,13.20
2019-06-20T07:29:22.819Z,8.65
2019-06-20T07:32:11.266Z,13.43
2019-06-20T07:34:59.822Z,11.97
2019-06-20T07:37:48.950Z,16.60
2019-06-20T07:40:37.349Z,11.35
2019-06-20T07:43:29.232Z,11.50
2019-06-20T07:46:17.603Z,10.40
2019-06-20T07:49:06.049Z,13.95
2019-06-20T07:51:54.381Z,7.67
2019-06-20T07:54:43.030Z,8.93
2019-06-20T07:57:31.729Z,8.28
2019-06-20T08:00:20.355Z,9.33
2019-06-20T08:03:08.989Z,7.08
2019-06-20T08:05:57.713Z,10.93
2019-06-20T08:08:46.613Z,11.25
2019-06-20T08:11:55.177Z,9.20
2019-06-20T08:14:43.330Z,14.98
2019-06-20T08:17:35.661Z,8.38
2019-06-20T08:20:21.887Z,13.00
2019-06-20T08:23:10.339Z,8.55
2019-06-20T08:26:00.438Z,11.12
2019-06-20T08:29:07.122Z,8.90
2019-06-20T08:31:41.512Z,9.38
2019-06-20T08:34:30.304Z,6.50
2019-06-20T08:37:19.058Z,9.98
2019-06-20T08:40:08.274Z,9.78
2019-06-20T08:42:59.753Z,5.33
2019-06-20T08:45:47.631Z,7.45
2019-06-20T08:48:36.572Z,10.82
2019-06-20T08:51:25.622Z,8.68
2019-06-20T08:54:14.098Z,7.15
2019-06-20T08:57:04.015Z,11.68
2019-06-20T08:59:52.489Z,12.43
2019-06-20T09:02:41.343Z,8.20
2019-06-20T09:05:31.057Z,10.98
2019-06-20T09:08:21.301Z,11.00
2019-06-20T09:11:10.113Z,13.95
2019-06-20T09:13:59.241Z,7.50
2019-06-20T09:16:47.934Z,17.35
2019-06-20T09:19:36.411Z,9.73
2019-06-20T09:22:25.056Z,11.68
2019-06-20T09:25:15.729Z,14.45
2019-06-20T09:28:04.059Z,11.30
2019-06-20T09:30:53.928Z,10.03
2019-06-20T09:33:42.965Z,9.30
2019-06-20T09:36:32.680Z,11.55
2019-06-20T09:39:21.189Z,7.25
2019-06-20T09:42:09.921Z,9.90
2019-06-20T09:44:58.498Z,9.18
2019-06-20T09:47:47.214Z,7.58
2019-06-20T09:50:36.014Z,6.80
2019-06-20T09:53:24.797Z,6.00
2019-06-20T09:56:13.226Z,9.48
2019-06-20T09:59:01.999Z,6.08
2019-06-20T10:01:55.798Z,13.30
2019-06-20T10:04:40.933Z,9.18
2019-06-20T10:07:32.296Z,9.18
2019-06-20T10:10:22.180Z,9.38
2019-06-20T10:13:10.619Z,9.85
2019-06-20T10:16:03.527Z,7.87
2019-06-20T10:18:52.202Z,12.33
2019-06-20T10:21:42.356Z,7.28
2019-06-20T10:24:30.869Z,7.37
2019-06-20T10:27:22.764Z,9.63
2019-06-20T10:30:15.609Z,8.28
2019-06-20T10:33:04.553Z,15.03
2019-06-20T10:36:03.379Z,7.05
2019-06-20T10:38:52.605Z,8.48
2019-06-20T10:41:41.155Z,6.92
2019-06-20T10:44:30.091Z,8.63
2019-06-20T10:47:31.459Z,5.72
2019-06-20T10:50:16.124Z,10.28
2019-06-20T10:53:05.380Z,8.10
2019-06-20T10:55:58.772Z,10.80
2019-06-20T10:58:48.439Z,12.13
2019-06-20T11:01:39.871Z,9.83
2019-06-20T11:04:30.259Z,10.25
2019-06-20T11:07:18.913Z,12.03
2019-06-20T11:10:10.128Z,12.25
2019-06-20T11:12:58.635Z,10.23
2019-06-20T11:15:48.274Z,11.48
2019-06-20T11:18:38.374Z,11.00
2019-06-20T11:21:28.597Z,10.25
2019-06-20T11:24:17.117Z,18.48
2019-06-20T11:27:07.141Z,14.05
2019-06-20T11:29:55.408Z,7.67
2019-06-20T11:32:45.727Z,6.75
2019-06-20T11:35:36.115Z,10.35
2019-06-20T11:38:25.212Z,11.28
2019-06-20T11:41:13.581Z,9.50
2019-06-20T11:44:02.042Z,8.03
2019-06-20T11:46:50.595Z,8.95
2019-06-20T11:49:40.400Z,10.10
2019-06-20T11:52:29.500Z,9.08
2019-06-20T11:55:18.382Z,10.88
2019-06-20T11:58:07.201Z,9.20
2019-06-20T12:01:03.561Z,8.18
2019-06-20T12:03:46.724Z,9.40
2019-06-20T12:06:35.536Z,10.05
2019-06-20T12:09:24.363Z,9.60
2019-06-20T12:12:13.047Z,12.63
2019-06-20T12:15:01.881Z,11.63
2019-06-20T12:17:50.592Z,9.50
2019-06-20T12:20:39.631Z,9.98
2019-06-20T12:23:29.133Z,16.27
2019-06-20T12:26:18.682Z,8.53
2019-06-20T12:29:07.392Z,7.17
2019-06-20T12:31:56.323Z,9.18
2019-06-20T12:34:44.815Z,10.82
2019-06-20T12:37:35.419Z,8.58
2019-06-20T12:40:24.852Z,12.23
2019-06-20T12:43:14.717Z,12.10
2019-06-20T12:46:03.304Z,9.35
2019-06-20T12:48:51.988Z,13.45
2019-06-20T12:51:42.023Z,11.97
2019-06-20T12:54:31.759Z,14.47
2019-06-20T12:57:20.386Z,14.73
2019-06-20T13:00:10.969Z,12.37
2019-06-20T13:02:59.191Z,12.75
2019-06-20T13:05:49.018Z,10.28
2019-06-20T13:08:39.006Z,9.68
2019-06-20T13:11:27.828Z,13.03
2019-06-20T13:14:16.665Z,8.98
2019-06-20T13:17:05.250Z,12.58
2019-06-20T13:19:54.083Z,15.28
2019-06-20T13:22:42.853Z,12.00
2019-06-20T13:25:36.236Z,14.33
2019-06-20T13:31:13.555Z,10.45
2019-06-20T13:34:02.428Z,12.00
2019-06-20T13:36:51.137Z,10.20
2019-06-20T13:39:40.367Z,14.18
2019-06-20T13:42:29.839Z,9.15
2019-06-20T13:45:23.796Z,12.53
2019-06-20T13:48:12.494Z,12.37
2019-06-20T13:51:01.011Z,10.45
2019-06-20T13:53:50.662Z,10.28
2019-06-20T13:56:39.089Z,9.20
2019-06-20T13:59:27.556Z,10.08
2019-06-20T14:02:16.307Z,13.03
2019-06-20T14:05:06.137Z,16.23
2019-06-20T14:07:56.007Z,9.98
2019-06-20T14:10:46.030Z,13.13
2019-06-20T14:13:35.044Z,12.80
2019-06-20T14:16:23.464Z,9.88
2019-06-20T14:19:12.108Z,10.25
2019-06-20T14:22:00.555Z,10.95
2019-06-20T14:24:50.832Z,14.33
2019-06-20T14:27:39.106Z,10.65
2019-06-20T14:30:27.850Z,19.45
2019-06-20T14:33:16.251Z,16.73
2019-06-20T14:36:05.004Z,13.62
2019-06-20T14:38:53.951Z,19.85
2019-06-20T14:41:43.662Z,18.70
2019-06-20T14:44:32.767Z,15.48
2019-06-20T14:47:21.168Z,15.23
2019-06-20T14:50:10.933Z,20.05
2019-06-20T14:52:59.727Z,16.82
2019-06-20T14:55:49.625Z,18.35
2019-06-20T14:58:38.565Z,12.05
2019-06-20T15:01:26.940Z,13.80
2019-06-20T15:04:15.472Z,10.98
2019-06-20T15:07:03.954Z,16.12
2019-06-20T15:09:53.207Z,14.73
2019-06-20T15:12:42.062Z,18.42
2019-06-20T15:15:31.615Z,15.98
2019-06-20T15:18:20.218Z,13.98
2019-06-20T15:21:08.843Z,13.70
2019-06-20T15:23:57.697Z,13.03
2019-06-20T15:26:47.644Z,12.93
2019-06-20T15:29:36.011Z,17.57
2019-06-20T15:32:25.128Z,12.20
2019-06-20T15:35:14.361Z,14.25
2019-06-20T15:38:03.144Z,12.55
2019-06-20T15:40:53.071Z,10.25
2019-06-20T15:43:42.206Z,19.07
2019-06-20T15:46:30.952Z,13.88
2019-06-20T15:49:19.624Z,15.83
2019-06-20T15:52:08.279Z,14.47
2019-06-20T15:54:56.904Z,18.62
2019-06-20T15:57:45.697Z,16.35
2019-06-20T16:00:34.243Z,15.88
2019-06-20T16:03:22.868Z,13.65
2019-06-20T16:06:11.592Z,13.43
2019-06-20T16:09:00.801Z,21.45
2019-06-20T16:12:10.415Z,14.95
2019-06-20T16:14:59.316Z,18.65
2019-06-20T16:17:48.283Z,17.25
2019-06-20T16:20:36.735Z,14.55
2019-06-20T16:23:25.507Z,11.43
2019-06-20T16:26:13.964Z,20.10
2019-06-20T16:29:02.974Z,17.65
2019-06-20T16:31:51.443Z,14.93
2019-06-20T16:34:39.880Z,16.82
2019-06-20T16:37:28.292Z,19.73
2019-06-20T16:40:19.022Z,20.68
2019-06-20T16:43:07.509Z,20.77
2019-06-20T16:45:56.241Z,22.00
2019-06-20T16:48:44.907Z,12.40
2019-06-20T16:51:33.230Z,14.85
2019-06-20T16:54:22.609Z,15.15
2019-06-20T16:57:11.438Z,13.72
2019-06-20T17:00:00.254Z,14.50
2019-06-20T17:02:48.692Z,14.73
2019-06-20T17:05:37.318Z,14.40
2019-06-20T17:08:26.100Z,13.65
2019-06-20T17:11:14.755Z,12.45
2019-06-20T17:14:03.811Z,13.28
2019-06-20T17:16:52.578Z,14.95
2019-06-20T17:19:42.206Z,12.15
2019-06-20T17:22:31.257Z,11.43
2019-06-20T17:25:19.822Z,9.13
2019-06-20T17:28:08.928Z,8.75
2019-06-20T17:30:57.150Z,8.55
2019-06-20T17:33:57.069Z,12.45
2019-06-20T17:36:35.572Z,16.42
2019-06-20T17:39:24.263Z,15.23
2019-06-20T17:42:13.196Z,14.38
2019-06-20T17:45:01.567Z,11.80
2019-06-20T17:47:50.092Z,15.58
2019-06-20T17:50:38.590Z,15.48
2019-06-20T17:53:27.146Z,13.55
2019-06-20T17:56:17.926Z,17.10
2019-06-20T17:59:05.637Z,14.68
2019-06-20T18:01:55.148Z,15.30
2019-06-20T18:04:43.716Z,13.28
2019-06-20T18:07:32.447Z,16.90
2019-06-20T18:10:21.655Z,15.80
2019-06-20T18:13:10.208Z,14.38
2019-06-20T18:15:58.808Z,26.02
2019-06-20T18:18:47.317Z,13.38
2019-06-20T18:21:35.800Z,14.60
2019-06-20T18:24:24.673Z,13.65
2019-06-20T18:27:13.077Z,20.90
2019-06-20T18:30:01.556Z,17.07
2019-06-20T18:32:50.333Z,15.98
2019-06-20T18:35:39.036Z,16.30
2019-06-20T18:38:27.623Z,17.07
2019-06-20T18:41:16.345Z,14.13
2019-06-20T18:44:05.108Z,19.57
2019-06-20T18:46:53.871Z,17.48
2019-06-20T18:49:42.309Z,15.93
2019-06-20T18:52:31.417Z,15.72
2019-06-20T18:55:19.807Z,18.55
2019-06-20T18:58:08.618Z,20.90
2019-06-20T19:00:57.629Z,17.42
2019-06-20T19:03:49.218Z,21.95
2019-06-20T19:06:40.766Z,19.40
2019-06-20T19:09:29.371Z,23.12
2019-06-20T19:12:18.342Z,19.65
2019-06-20T19:15:08.276Z,18.10
2019-06-20T19:18:05.763Z,20.37
2019-06-20T19:20:55.649Z,18.70
2019-06-20T19:23:44.264Z,18.55
2019-06-20T19:26:33.106Z,19.80
2019-06-20T19:29:21.810Z,15.98
2019-06-20T19:32:21.009Z,18.32
2019-06-20T19:35:11.350Z,20.15
2019-06-20T19:38:02.612Z,25.60
2019-06-20T19:40:54.689Z,20.75
2019-06-20T19:43:44.046Z,21.45
2019-06-20T19:46:32.857Z,21.85
2019-06-20T19:49:24.510Z,22.82
2019-06-20T19:52:15.034Z,22.75
2019-06-20T19:55:04.595Z,26.30
2019-06-20T19:57:53.437Z,19.32
2019-06-20T20:00:42.062Z,21.62
2019-06-20T20:03:31.702Z,18.20
2019-06-20T20:06:20.533Z,21.48
2019-06-20T20:09:09.621Z,20.40
2019-06-20T20:11:58.450Z,16.32
2019-06-20T20:14:47.285Z,18.77
2019-06-20T20:17:35.713Z,17.67
2019-06-20T20:20:24.726Z,16.55
2019-06-20T20:23:13.319Z,17.92
2019-06-20T20:26:01.917Z,14.20
2019-06-20T20:28:50.515Z,14.00
2019-06-20T20:31:39.569Z,14.47
2019-06-20T20:34:28.431Z,17.73
2019-06-20T20:37:20.707Z,14.38
2019-06-20T20:40:11.169Z,15.38
2019-06-20T20:43:00.583Z,17.07
2019-06-20T20:45:49.596Z,13.68
2019-06-20T20:48:38.536Z,16.20
2019-06-20T20:51:27.053Z,13.68
2019-06-20T20:54:15.963Z,12.88
2019-06-20T20:57:04.562Z,13.95
2019-06-20T20:59:53.184Z,14.90
2019-06-20T21:02:42.194Z,15.03
2019-06-20T21:05:30.494Z,15.43
2019-06-20T21:08:18.982Z,15.25
2019-06-20T21:11:07.834Z,18.42
2019-06-20T21:13:56.764Z,14.68
2019-06-20T21:16:45.478Z,16.87
2019-06-20T21:19:33.915Z,16.90
2019-06-20T21:22:22.265Z,16.07
2019-06-20T21:25:12.663Z,20.65
2019-06-20T21:28:01.210Z,18.45
2019-06-20T21:30:49.484Z,19.12
2019-06-20T21:33:37.908Z,19.20
2019-06-20T21:36:26.681Z,20.97
2019-06-20T21:39:15.404Z,18.80
2019-06-20T21:42:04.061Z,17.57
2019-06-20T21:44:52.724Z,18.27
2019-06-20T21:47:40.975Z,19.52
2019-06-20T21:50:29.840Z,18.45
2019-06-20T21:53:18.476Z,18.55
2019-06-20T21:56:07.520Z,19.75
2019-06-20T21:58:55.585Z,17.45
2019-06-20T22:01:44.229Z,15.08
2019-06-20T22:04:32.500Z,18.10
2019-06-20T22:07:21.262Z,20.15
2019-06-20T22:10:10.282Z,18.00
2019-06-20T22:12:58.887Z,20.08
2019-06-20T22:15:47.670Z,22.30
2019-06-20T22:18:36.384Z,19.95
2019-06-20T22:21:24.862Z,21.00
2019-06-20T22:24:13.585Z,22.02
2019-06-20T22:27:02.303Z,19.32
2019-06-20T22:29:51.052Z,23.47
2019-06-20T22:32:39.765Z,19.65
2019-06-20T22:35:28.216Z,20.57
2019-06-20T22:38:16.839Z,22.40
2019-06-20T22:41:05.494Z,21.55
2019-06-20T22:43:54.188Z,15.55
2019-06-20T22:46:42.921Z,16.15
2019-06-20T22:49:31.408Z,17.95
2019-06-20T22:52:20.212Z,18.02
2019-06-20T22:55:09.230Z,15.20
2019-06-20T22:57:58.279Z,14.20
2019-06-20T23:00:46.870Z,16.85
2019-06-20T23:03:35.283Z,15.25
2019-06-20T23:06:23.829Z,14.50
2019-06-20T23:09:12.228Z,17.62
2019-06-20T23:12:00.853Z,13.43
2019-06-20T23:14:49.331Z,13.78
2019-06-20T23:17:38.046Z,17.98
2019-06-20T23:20:26.878Z,15.13
2019-06-20T23:23:15.643Z,15.00
2019-06-20T23:26:07.140Z,16.50
2019-06-20T23:29:13.724Z,15.70
2019-06-20T23:32:02.223Z,16.70
2019-06-20T23:34:50.955Z,15.23
2019-06-20T23:37:39.827Z,14.38
2019-06-20T23:40:28.344Z,15.15
2019-06-20T23:43:16.968Z,16.10
2019-06-20T23:46:06.470Z,14.35
2019-06-20T23:48:55.894Z,15.98
2019-06-20T23:51:46.408Z,17.55
2019-06-20T23:54:34.731Z,14.23
2019-06-20T23:57:23.088Z,19.42
